createdAt,value
2019-02-25T00:00:38.947Z,102.05
2019-02-25T00:03:09.299Z,128.82
2019-02-25T00:05:38.374Z,110.22
2019-02-25T00:08:07.336Z,111.47
2019-02-25T00:10:36.128Z,102.78
2019-02-25T00:13:04.835Z,80.65
2019-02-25T00:15:34.750Z,92.78
2019-02-25T00:18:03.614Z,90.85
2019-02-25T00:20:32.585Z,60.52
2019-02-25T00:23:01.178Z,39.63
2019-02-25T00:25:29.834Z,59.77
2019-02-25T00:27:58.714Z,54.93
2019-02-25T00:30:28.599Z,63.28
2019-02-25T00:32:57.355Z,68.22
2019-02-25T00:35:26.454Z,57.93
2019-02-25T00:37:55.169Z,41.48
2019-02-25T00:40:23.858Z,39.85
2019-02-25T00:42:52.826Z,36.93
2019-02-25T00:45:21.401Z,32.58
2019-02-25T00:47:50.349Z,28.98
2019-02-25T00:50:22.805Z,29.10
2019-02-25T00:52:51.679Z,35.10
2019-02-25T00:55:20.607Z,52.08
2019-02-25T00:57:49.394Z,44.38
2019-02-25T01:00:20.044Z,39.35
2019-02-25T01:02:48.598Z,36.83
2019-02-25T01:05:17.650Z,30.20
2019-02-25T01:07:46.387Z,32.63
2019-02-25T01:10:15.534Z,31.62
2019-02-25T01:12:45.254Z,31.17
2019-02-25T01:15:14.472Z,34.00
2019-02-25T01:17:43.126Z,30.45
2019-02-25T01:20:13.464Z,30.32
2019-02-25T01:22:42.226Z,30.70
2019-02-25T01:25:18.382Z,33.35
2019-02-25T01:27:48.195Z,28.60
2019-02-25T01:30:17.607Z,29.20
2019-02-25T01:32:46.774Z,32.50
2019-02-25T01:35:15.388Z,42.27
2019-02-25T01:37:44.416Z,68.92
2019-02-25T01:40:13.838Z,46.88
2019-02-25T01:42:42.420Z,34.83
2019-02-25T01:45:15.536Z,32.00
2019-02-25T01:47:44.587Z,37.70
2019-02-25T01:50:13.517Z,40.98
2019-02-25T01:52:42.180Z,34.18
2019-02-25T01:55:12.497Z,37.17
2019-02-25T01:57:41.341Z,34.48
2019-02-25T02:00:11.839Z,34.35
2019-02-25T02:02:40.756Z,31.50
2019-02-25T02:05:09.721Z,36.98
2019-02-25T02:07:38.414Z,32.75
2019-02-25T02:10:08.668Z,33.05
2019-02-25T02:12:37.651Z,33.65
2019-02-25T02:15:11.051Z,33.28
2019-02-25T02:17:39.895Z,35.55
2019-02-25T02:20:10.375Z,34.70
2019-02-25T02:22:39.240Z,34.45
2019-02-25T02:25:08.805Z,33.28
2019-02-25T02:27:37.590Z,33.73
2019-02-25T02:30:13.719Z,32.23
2019-02-25T02:32:42.287Z,33.85
2019-02-25T02:35:11.174Z,34.10
2019-02-25T02:37:40.022Z,33.23
2019-02-25T02:40:10.475Z,35.28
2019-02-25T02:42:40.808Z,33.15
2019-02-25T02:45:14.094Z,39.35
2019-02-25T02:47:47.622Z,31.45
2019-02-25T02:50:19.996Z,39.08
2019-02-25T02:55:16.806Z,36.77
2019-02-25T02:57:45.508Z,38.45
2019-02-25T03:00:21.454Z,47.65
2019-02-25T03:02:50.296Z,46.50
2019-02-25T03:05:19.237Z,50.35
2019-02-25T03:07:47.967Z,54.93
2019-02-25T03:10:19.985Z,43.13
2019-02-25T03:12:48.675Z,45.73
2019-02-25T03:15:18.630Z,43.35
2019-02-25T03:17:47.246Z,43.02
2019-02-25T03:20:16.148Z,43.48
2019-02-25T03:22:45.005Z,45.88
2019-02-25T03:25:14.608Z,49.05
2019-02-25T03:27:43.532Z,47.35
2019-02-25T03:30:21.921Z,47.17
2019-02-25T03:32:50.835Z,48.28
2019-02-25T03:35:20.840Z,51.15
2019-02-25T03:37:49.952Z,52.17
2019-02-25T03:40:19.744Z,50.10
2019-02-25T03:42:48.392Z,54.35
2019-02-25T03:45:17.927Z,55.38
2019-02-25T03:47:46.784Z,58.35
2019-02-25T03:50:15.895Z,63.13
2019-02-25T03:52:44.818Z,75.32
2019-02-25T03:55:18.385Z,66.57
2019-02-25T03:57:48.216Z,61.10
2019-02-25T04:00:24.537Z,67.72
2019-02-25T04:02:53.425Z,65.22
2019-02-25T04:05:23.388Z,67.70
2019-02-25T04:07:52.344Z,71.37
2019-02-25T04:10:20.945Z,80.35
2019-02-25T04:12:49.877Z,79.65
2019-02-25T04:15:20.578Z,93.33
2019-02-25T04:17:49.527Z,94.75
2019-02-25T04:20:18.576Z,88.67
2019-02-25T04:22:47.374Z,98.82
2019-02-25T04:25:16.065Z,98.95
2019-02-25T04:27:44.816Z,93.33
2019-02-25T04:30:15.239Z,92.53
2019-02-25T04:32:44.408Z,114.50
2019-02-25T04:35:13.642Z,97.82
2019-02-25T04:37:43.690Z,92.82
2019-02-25T04:40:13.629Z,78.62
2019-02-25T04:42:42.563Z,87.08
2019-02-25T04:45:13.597Z,87.92
2019-02-25T04:47:42.394Z,94.07
2019-02-25T04:50:11.795Z,81.95
2019-02-25T04:52:40.406Z,78.72
2019-02-25T04:55:12.472Z,84.42
2019-02-25T04:57:41.575Z,78.17
2019-02-25T05:00:12.366Z,76.15
2019-02-25T05:02:41.296Z,72.55
2019-02-25T05:05:10.060Z,71.97
2019-02-25T05:07:38.995Z,79.22
2019-02-25T05:10:09.037Z,87.22
2019-02-25T05:12:38.302Z,105.97
2019-02-25T05:15:08.066Z,104.90
2019-02-25T05:17:36.926Z,133.82
2019-02-25T05:20:06.706Z,115.42
2019-02-25T05:22:37.533Z,103.05
2019-02-25T05:25:07.178Z,104.80
2019-02-25T05:27:36.116Z,102.10
2019-02-25T05:30:06.068Z,105.25
2019-02-25T05:32:35.096Z,106.80
2019-02-25T05:35:04.162Z,120.62
2019-02-25T05:37:32.762Z,121.82
2019-02-25T05:40:01.529Z,124.67
2019-02-25T05:42:30.369Z,125.07
2019-02-25T05:44:59.257Z,125.18
2019-02-25T05:47:27.979Z,117.42
2019-02-25T05:49:56.694Z,116.80
2019-02-25T05:52:25.447Z,131.20
2019-02-25T05:54:54.015Z,136.45
2019-02-25T05:57:22.869Z,147.15
2019-02-25T05:59:51.735Z,159.87
2019-02-25T06:02:20.585Z,134.95
2019-02-25T06:04:49.564Z,137.52
2019-02-25T06:07:18.397Z,159.85
2019-02-25T06:09:47.188Z,164.47
2019-02-25T06:12:16.097Z,159.30
2019-02-25T06:14:44.973Z,172.65
2019-02-25T06:17:14.056Z,156.50
2019-02-25T06:19:42.746Z,160.40
2019-02-25T06:22:11.567Z,186.73
2019-02-25T06:24:40.225Z,160.93
2019-02-25T06:27:08.917Z,171.95
2019-02-25T06:29:37.597Z,157.07
2019-02-25T06:32:06.635Z,171.40
2019-02-25T06:34:35.295Z,147.17
2019-02-25T06:37:04.905Z,135.00
2019-02-25T06:39:33.500Z,137.60
2019-02-25T06:42:02.336Z,125.20
2019-02-25T06:44:31.300Z,139.15
2019-02-25T06:47:00.056Z,151.70
2019-02-25T06:49:28.969Z,156.97
2019-02-25T06:51:57.643Z,136.52
2019-02-25T06:54:26.434Z,145.02
2019-02-25T06:56:55.265Z,148.17
2019-02-25T06:59:23.824Z,146.57
2019-02-25T07:01:52.403Z,148.20
2019-02-25T07:04:28.838Z,146.22
2019-02-25T07:07:02.277Z,135.52
2019-02-25T07:09:32.893Z,133.37
2019-02-25T07:12:03.060Z,130.65
2019-02-25T07:14:36.163Z,136.95
2019-02-25T07:17:23.023Z,126.22
2019-02-25T07:19:53.500Z,121.28
2019-02-25T07:22:26.687Z,107.92
2019-02-25T07:25:02.604Z,120.77
2019-02-25T07:27:36.126Z,117.28
2019-02-25T07:30:19.613Z,119.85
2019-02-25T07:33:08.407Z,109.70
2019-02-25T07:35:41.586Z,110.15
2019-02-25T07:38:12.063Z,113.90
2019-02-25T07:40:48.555Z,109.00
2019-02-25T07:43:23.189Z,112.92
2019-02-25T07:45:56.392Z,104.00
2019-02-25T07:48:29.398Z,103.47
2019-02-25T07:50:59.998Z,102.10
2019-02-25T07:53:33.238Z,102.87
2019-02-25T07:56:09.844Z,102.10
2019-02-25T07:58:40.347Z,106.70
2019-02-25T08:01:10.934Z,100.27
2019-02-25T08:03:44.217Z,94.90
2019-02-25T08:06:17.847Z,95.28
2019-02-25T08:08:57.331Z,95.67
2019-02-25T08:11:33.735Z,95.57
2019-02-25T08:14:03.877Z,95.60
2019-02-25T08:16:36.915Z,94.72
2019-02-25T08:19:15.967Z,93.45
2019-02-25T08:21:49.485Z,88.75
2019-02-25T08:24:30.300Z,88.27
2019-02-25T08:27:00.346Z,96.75
2019-02-25T08:29:30.766Z,95.92
2019-02-25T08:32:01.364Z,107.75
2019-02-25T08:34:31.531Z,98.03
2019-02-25T08:37:05.886Z,94.60
2019-02-25T08:39:42.037Z,107.05
2019-02-25T08:42:21.556Z,105.52
2019-02-25T08:44:54.539Z,107.60
2019-02-25T08:47:36.875Z,135.28
2019-02-25T08:50:07.508Z,138.50
2019-02-25T08:52:36.542Z,140.85
2019-02-25T08:55:06.826Z,141.45
2019-02-25T08:57:36.118Z,127.65
2019-02-25T09:00:06.202Z,124.30
2019-02-25T09:02:35.055Z,119.70
2019-02-25T09:05:04.275Z,105.07
2019-02-25T09:07:33.162Z,100.22
2019-02-25T09:10:01.997Z,105.30
2019-02-25T09:12:31.891Z,97.45
2019-02-25T09:15:00.616Z,95.92
2019-02-25T09:17:29.443Z,90.42
2019-02-25T09:19:58.191Z,92.75
2019-02-25T09:22:26.896Z,91.17
2019-02-25T09:24:56.075Z,91.95
2019-02-25T09:27:26.093Z,97.95
2019-02-25T09:29:55.106Z,94.67
2019-02-25T09:32:24.175Z,92.40
2019-02-25T09:34:53.252Z,86.97
2019-02-25T09:37:22.983Z,88.37
2019-02-25T09:39:52.058Z,88.00
2019-02-25T09:42:21.035Z,109.83
2019-02-25T09:44:50.007Z,114.82
2019-02-25T09:47:19.812Z,138.80
2019-02-25T09:49:48.629Z,124.25
2019-02-25T09:52:17.597Z,133.72
2019-02-25T09:54:46.507Z,132.55
2019-02-25T09:57:16.472Z,128.27
2019-02-25T09:59:45.172Z,122.82
2019-02-25T10:02:13.916Z,123.60
2019-02-25T10:04:42.776Z,115.60
2019-02-25T10:07:11.673Z,113.35
2019-02-25T10:09:40.745Z,109.15
2019-02-25T10:12:09.858Z,114.82
2019-02-25T10:14:39.636Z,117.67
2019-02-25T10:17:09.605Z,100.78
2019-02-25T10:19:38.253Z,101.95
2019-02-25T10:22:07.176Z,92.22
2019-02-25T10:24:36.266Z,90.25
2019-02-25T10:27:04.886Z,90.47
2019-02-25T10:29:33.644Z,95.53
2019-02-25T10:32:04.298Z,101.02
2019-02-25T10:34:32.962Z,109.30
2019-02-25T10:37:01.816Z,116.30
2019-02-25T10:39:30.628Z,91.17
2019-02-25T10:41:59.952Z,95.05
2019-02-25T10:44:31.738Z,107.05
2019-02-25T10:47:00.693Z,99.37
2019-02-25T10:49:31.411Z,92.47
2019-02-25T10:52:00.374Z,105.20
2019-02-25T10:54:29.023Z,99.75
2019-02-25T10:56:58.197Z,92.82
2019-02-25T10:59:26.904Z,92.10
2019-02-25T11:01:56.753Z,101.02
2019-02-25T11:04:26.626Z,85.65
2019-02-25T11:06:55.378Z,95.75
2019-02-25T11:09:25.961Z,94.03
2019-02-25T11:11:57.265Z,100.47
2019-02-25T11:14:25.116Z,105.30
2019-02-25T11:16:53.973Z,91.78
2019-02-25T11:19:24.434Z,103.97
2019-02-25T11:21:52.856Z,87.22
2019-02-25T11:24:23.391Z,88.03
2019-02-25T11:26:52.448Z,87.08
2019-02-25T11:29:21.094Z,88.97
2019-02-25T11:31:51.429Z,91.40
2019-02-25T11:34:20.203Z,88.22
2019-02-25T11:36:50.968Z,93.47
2019-02-25T11:39:20.293Z,86.67
2019-02-25T11:41:49.135Z,87.67
2019-02-25T11:44:19.017Z,85.53
2019-02-25T11:46:48.367Z,73.78
2019-02-25T11:49:17.366Z,76.95
2019-02-25T11:51:46.385Z,82.25
2019-02-25T11:54:15.087Z,82.92
2019-02-25T11:56:43.864Z,88.90
2019-02-25T11:59:12.521Z,89.03
2019-02-25T12:01:41.387Z,86.85
2019-02-25T12:04:10.233Z,81.90
2019-02-25T12:06:39.166Z,78.72
2019-02-25T12:09:08.167Z,81.75
2019-02-25T12:11:36.890Z,87.62
2019-02-25T12:14:05.750Z,73.07
2019-02-25T12:16:35.563Z,67.08
2019-02-25T12:19:04.546Z,65.12
2019-02-25T12:21:33.489Z,67.08
2019-02-25T12:24:02.104Z,63.42
2019-02-25T12:26:30.809Z,71.67
2019-02-25T12:28:59.646Z,71.85
2019-02-25T12:31:28.511Z,68.97
2019-02-25T12:33:58.173Z,63.08
2019-02-25T12:36:26.814Z,61.65
2019-02-25T12:38:55.625Z,61.25
2019-02-25T12:41:24.554Z,50.90
2019-02-25T12:43:53.495Z,51.63
2019-02-25T12:46:23.315Z,49.10
2019-02-25T12:48:52.139Z,48.50
2019-02-25T12:51:20.952Z,50.38
2019-02-25T12:53:50.900Z,49.23
2019-02-25T12:56:19.842Z,45.15
2019-02-25T12:58:48.743Z,42.03
2019-02-25T13:01:17.350Z,38.13
2019-02-25T13:03:46.023Z,51.28
2019-02-25T13:06:15.092Z,58.87
2019-02-25T13:08:43.979Z,50.85
2019-02-25T13:11:13.076Z,42.88
2019-02-25T13:13:41.625Z,35.73
2019-02-25T13:16:10.484Z,33.33
2019-02-25T13:18:40.192Z,31.23
2019-02-25T13:21:10.345Z,32.93
2019-02-25T13:23:39.041Z,30.17
2019-02-25T13:26:07.912Z,29.50
2019-02-25T13:28:36.734Z,31.15
2019-02-25T13:31:06.383Z,29.80
2019-02-25T13:33:36.034Z,29.45
2019-02-25T13:36:06.264Z,31.95
2019-02-25T13:38:35.319Z,31.30
2019-02-25T13:41:04.467Z,29.77
2019-02-25T13:43:33.396Z,29.27
2019-02-25T13:46:02.019Z,27.58
2019-02-25T13:48:30.878Z,31.77
2019-02-25T13:50:59.836Z,32.08
2019-02-25T13:53:28.623Z,33.18
2019-02-25T13:55:57.347Z,27.07
2019-02-25T13:58:26.391Z,29.40
2019-02-25T14:00:55.136Z,30.43
2019-02-25T14:03:24.024Z,28.95
2019-02-25T14:05:52.752Z,29.27
2019-02-25T14:08:21.640Z,25.30
2019-02-25T14:10:50.383Z,24.85
2019-02-25T14:13:19.305Z,28.10
2019-02-25T14:15:48.028Z,24.82
2019-02-25T14:18:17.006Z,25.95
2019-02-25T14:20:45.744Z,24.75
2019-02-25T14:23:16.076Z,28.80
2019-02-25T14:25:44.997Z,31.02
2019-02-25T14:28:13.934Z,27.90
2019-02-25T14:30:42.973Z,28.60
2019-02-25T14:33:14.835Z,28.73
2019-02-25T14:35:43.176Z,29.12
2019-02-25T14:38:17.713Z,26.97
2019-02-25T14:40:46.765Z,30.25
2019-02-25T14:43:17.592Z,27.30
2019-02-25T14:45:47.108Z,28.83
2019-02-25T14:48:20.382Z,27.60
2019-02-25T14:50:48.116Z,29.23
2019-02-25T14:53:17.084Z,29.48
2019-02-25T14:55:55.293Z,25.60
2019-02-25T14:58:24.745Z,27.58
2019-02-25T15:00:53.596Z,29.27
2019-02-25T15:03:24.375Z,33.83
2019-02-25T15:05:54.824Z,28.57
2019-02-25T15:08:24.038Z,32.25
2019-02-25T15:10:55.531Z,36.95
2019-02-25T15:13:26.212Z,59.08
2019-02-25T15:15:54.586Z,63.25
2019-02-25T15:18:25.192Z,94.40
2019-02-25T15:20:53.628Z,50.28
2019-02-25T15:23:23.750Z,54.77
2019-02-25T15:25:53.017Z,28.23
2019-02-25T15:28:22.515Z,38.05
2019-02-25T15:30:51.535Z,26.23
2019-02-25T15:33:20.129Z,24.15
2019-02-25T15:35:48.759Z,29.98
2019-02-25T15:38:19.189Z,30.68
2019-02-25T15:40:48.025Z,29.90
2019-02-25T15:43:18.692Z,28.20
2019-02-25T15:45:47.237Z,23.10
2019-02-25T15:48:19.927Z,22.87
2019-02-25T15:50:52.818Z,23.92
2019-02-25T15:53:21.668Z,28.30
2019-02-25T15:55:50.614Z,36.03
2019-02-25T15:58:19.441Z,36.85
2019-02-25T16:00:48.351Z,36.77
2019-02-25T16:03:20.408Z,37.65
2019-02-25T16:05:48.210Z,36.88
2019-02-25T16:08:19.399Z,38.30
2019-02-25T16:10:49.550Z,37.58
2019-02-25T16:13:18.576Z,45.23
2019-02-25T16:15:47.447Z,44.95
2019-02-25T16:18:16.039Z,50.43
2019-02-25T16:20:46.204Z,50.40
2019-02-25T16:23:15.317Z,46.80
2019-02-25T16:25:46.077Z,51.20
2019-02-25T16:28:15.689Z,46.30
2019-02-25T16:30:46.786Z,45.25
2019-02-25T16:33:15.717Z,46.37
2019-02-25T16:35:46.118Z,50.73
2019-02-25T16:38:14.817Z,51.90
2019-02-25T16:40:43.476Z,48.15
2019-02-25T16:43:12.941Z,45.25
2019-02-25T16:45:42.590Z,49.33
2019-02-25T16:48:12.087Z,47.58
2019-02-25T16:50:43.999Z,46.80
2019-02-25T16:53:14.851Z,41.53
2019-02-25T16:55:45.065Z,40.52
2019-02-25T16:58:13.540Z,43.90
2019-02-25T17:00:42.832Z,40.78
2019-02-25T17:03:13.743Z,39.67
2019-02-25T17:05:45.621Z,42.23
2019-02-25T17:08:14.761Z,43.25
2019-02-25T17:10:43.395Z,40.63
2019-02-25T17:13:14.332Z,44.10
2019-02-25T17:15:46.006Z,36.83
2019-02-25T17:18:15.166Z,46.28
2019-02-25T17:20:44.897Z,45.83
2019-02-25T17:23:13.805Z,42.48
2019-02-25T17:25:43.550Z,36.42
2019-02-25T17:28:15.296Z,42.38
2019-02-25T17:30:44.558Z,46.02
2019-02-25T17:33:14.672Z,49.77
2019-02-25T17:35:45.065Z,43.25
2019-02-25T17:38:13.668Z,41.85
2019-02-25T17:40:42.484Z,38.23
2019-02-25T17:43:13.357Z,34.73
2019-02-25T17:45:41.696Z,34.08
2019-02-25T17:48:11.077Z,29.70
2019-02-25T17:50:41.546Z,27.73
2019-02-25T17:53:10.440Z,24.02
2019-02-25T17:55:39.497Z,23.10
2019-02-25T17:58:08.925Z,23.18
2019-02-25T18:00:42.579Z,24.02
2019-02-25T18:03:11.626Z,21.52
2019-02-25T18:05:42.933Z,22.93
2019-02-25T18:08:13.265Z,27.13
2019-02-25T18:10:43.176Z,21.10
2019-02-25T18:13:12.747Z,23.15
2019-02-25T18:15:42.036Z,21.05
2019-02-25T18:18:12.477Z,28.50
2019-02-25T18:20:41.337Z,33.35
2019-02-25T18:23:10.310Z,26.60
2019-02-25T18:25:39.714Z,20.17
2019-02-25T18:28:10.703Z,21.12
2019-02-25T18:30:39.381Z,25.05
2019-02-25T18:33:08.673Z,20.27
2019-02-25T18:35:39.456Z,22.80
2019-02-25T18:38:09.581Z,21.90
2019-02-25T18:40:40.530Z,22.80
2019-02-25T18:43:08.857Z,21.57
2019-02-25T18:45:38.511Z,24.35
2019-02-25T18:48:08.268Z,18.45
2019-02-25T18:50:39.496Z,20.88
2019-02-25T18:53:08.731Z,19.92
2019-02-25T18:55:37.486Z,20.32
2019-02-25T18:58:11.465Z,22.07
2019-02-25T19:00:41.929Z,21.42
2019-02-25T19:03:10.471Z,23.73
2019-02-25T19:05:39.324Z,23.95
2019-02-25T19:08:14.385Z,20.85
2019-02-25T19:10:43.504Z,21.73
2019-02-25T19:13:15.595Z,21.35
2019-02-25T19:15:42.847Z,21.20
2019-02-25T19:18:13.251Z,21.75
2019-02-25T19:20:43.368Z,22.93
2019-02-25T19:23:13.747Z,21.82
2019-02-25T19:25:42.729Z,24.12
2019-02-25T19:28:16.633Z,18.95
2019-02-25T19:30:42.106Z,16.62
2019-02-25T19:33:11.505Z,17.23
2019-02-25T19:35:40.961Z,18.48
2019-02-25T19:38:10.382Z,23.85
2019-02-25T19:40:40.807Z,22.30
2019-02-25T19:43:10.527Z,22.90
2019-02-25T19:45:40.590Z,52.83
2019-02-25T19:48:09.388Z,26.90
2019-02-25T19:50:49.865Z,22.58
2019-02-25T19:53:11.786Z,22.93
2019-02-25T19:55:40.940Z,21.42
2019-02-25T19:58:10.719Z,28.92
2019-02-25T20:00:39.458Z,24.37
2019-02-25T20:03:08.542Z,28.02
2019-02-25T20:05:41.127Z,31.82
2019-02-25T20:08:07.846Z,30.00
2019-02-25T20:10:36.640Z,33.78
2019-02-25T20:13:08.622Z,40.70
2019-02-25T20:15:39.655Z,46.65
2019-02-25T20:18:09.322Z,44.90
2019-02-25T20:20:38.923Z,52.03
2019-02-25T20:23:08.955Z,55.28
2019-02-25T20:25:37.784Z,53.10
2019-02-25T20:28:06.494Z,52.30
2019-02-25T20:30:35.500Z,51.15
2019-02-25T20:33:06.352Z,48.98
2019-02-25T20:35:34.534Z,54.40
2019-02-25T20:38:05.101Z,50.50
2019-02-25T20:40:33.583Z,54.95
2019-02-25T20:43:03.099Z,50.98
2019-02-25T20:45:35.026Z,47.50
2019-02-25T20:48:03.597Z,48.25
2019-02-25T20:50:32.295Z,51.20
2019-02-25T20:53:04.936Z,46.42
2019-02-25T20:55:32.101Z,43.87
2019-02-25T20:58:01.726Z,51.53
2019-02-25T21:00:34.764Z,48.48
2019-02-25T21:03:01.033Z,47.13
2019-02-25T21:05:30.986Z,45.55
2019-02-25T21:08:00.037Z,40.78
2019-02-25T21:10:32.304Z,37.58
2019-02-25T21:13:29.255Z,39.88
2019-02-25T21:15:58.312Z,45.40
2019-02-25T21:18:28.841Z,41.23
2019-02-25T21:20:57.585Z,61.92
2019-02-25T21:23:26.313Z,54.10
2019-02-25T21:25:57.503Z,40.33
2019-02-25T21:28:28.860Z,41.30
2019-02-25T21:30:55.584Z,50.48
2019-02-25T21:33:25.887Z,43.08
2019-02-25T21:35:54.775Z,42.27
2019-02-25T21:38:24.340Z,43.68
2019-02-25T21:40:54.931Z,33.42
2019-02-25T21:43:26.314Z,38.60
2019-02-25T21:45:54.905Z,33.38
2019-02-25T21:48:25.630Z,46.30
2019-02-25T21:50:58.057Z,67.65
2019-02-25T21:53:25.136Z,85.38
2019-02-25T21:55:55.388Z,78.75
2019-02-25T21:58:25.429Z,84.55
2019-02-25T22:00:54.141Z,74.30
2019-02-25T22:03:22.672Z,85.00
2019-02-25T22:05:53.243Z,92.47
2019-02-25T22:08:24.099Z,91.42
2019-02-25T22:10:51.768Z,94.20
2019-02-25T22:13:20.885Z,67.00
2019-02-25T22:15:50.095Z,63.80
2019-02-25T22:18:18.866Z,70.55
2019-02-25T22:20:49.276Z,44.65
2019-02-25T22:23:21.992Z,38.92
2019-02-25T22:25:48.503Z,42.60
2019-02-25T22:28:17.072Z,44.73
2019-02-25T22:30:47.489Z,46.98
2019-02-25T22:33:26.692Z,67.00
2019-02-25T22:35:48.865Z,69.03
2019-02-25T22:38:18.244Z,55.23
2019-02-25T22:40:47.161Z,61.57
2019-02-25T22:43:16.417Z,63.90
2019-02-25T22:45:46.484Z,56.65
2019-02-25T22:48:16.389Z,53.00
2019-02-25T22:50:45.475Z,47.98
2019-02-25T22:53:14.081Z,54.20
2019-02-25T22:55:44.919Z,61.05
2019-02-25T22:58:14.951Z,57.27
2019-02-25T23:00:49.757Z,54.88
2019-02-25T23:03:22.238Z,68.30
2019-02-25T23:05:50.925Z,61.18
2019-02-25T23:08:23.447Z,48.35
2019-02-25T23:10:54.027Z,48.05
2019-02-25T23:13:23.085Z,41.42
2019-02-25T23:15:53.544Z,55.98
2019-02-25T23:18:25.134Z,63.42
2019-02-25T23:20:54.835Z,60.90
2019-02-25T23:23:25.457Z,72.17
2019-02-25T23:25:54.123Z,70.05
2019-02-25T23:28:25.413Z,55.55
2019-02-25T23:30:55.531Z,63.95
2019-02-25T23:33:24.677Z,54.65
2019-02-25T23:35:55.672Z,58.20
2019-02-25T23:38:24.307Z,62.85
2019-02-25T23:40:53.106Z,62.53
2019-02-25T23:43:21.835Z,57.55
2019-02-25T23:45:50.869Z,43.63
2019-02-25T23:48:19.504Z,48.63
2019-02-25T23:50:50.227Z,47.10
2019-02-25T23:53:18.683Z,46.25
2019-02-25T23:55:49.514Z,47.03
2019-02-25T23:58:20.176Z,45.12
